VLG3GT LEBL-EDDV
Flight info
| Callsign | VLG3GT |
|---|---|
| Flight time | 1h 59m |
| Altitude | 30000 |
| Route | DALIN DCT PIVUS DCT DIBER/N0425F340 DCT ADITA DCT MAXIR DCT LUSOL DCT BODRU DCT OKTET DCT IRMAR DCT KINES DCT VANAS DCT MOBLO DCT UBIMA DCT SOSAL DCT KORED DCT BERSU DCT DITON DCT LOKTA DCT TEDGO DCT HAREM DCT LOHRE DCT MASEK/N0372F240 Z99 ELNAT P605 WERRA WERRA1X |
| Aircraft | A320/M-SDFGHILORVWXY/LB1 |
Departure
| Time | 2026-05-04 12:06 |
|---|---|
| Airport | Josep Tarradellas Barcelona-El Prat Airport (LEBL) |
Arrival
| Time | 2026-05-04 14:06 |
|---|---|
| Airport | Hannover Airport (EDDV) |
| Time | Latitude | Longitude | Altitude | Speed | Heading |
|---|---|---|---|---|---|
| 2026-05-04 11:34 | 41.29210 | 2.08118 | 3 ft | 0 kts | 154° |
| 2026-05-04 11:55 | 41.29241 | 2.08098 | 5 ft | 3 kts | 154° |
| 2026-05-04 11:55 | 41.29258 | 2.08087 | 3 ft | 3 kts | 144° |
| 2026-05-04 11:56 | 41.29272 | 2.08070 | 3 ft | 3 kts | 112° |
| 2026-05-04 11:56 | 41.29275 | 2.08049 | 4 ft | 2 kts | 68° |
| 2026-05-04 11:56 | 41.29270 | 2.08035 | 3 ft | 3 kts | 65° |
| 2026-05-04 11:56 | 41.29266 | 2.08023 | 4 ft | 0 kts | 65° |
| 2026-05-04 11:58 | 41.29269 | 2.08032 | 3 ft | 2 kts | 65° |
| 2026-05-04 11:59 | 41.29278 | 2.08059 | 4 ft | 4 kts | 65° |
| 2026-05-04 11:59 | 41.29294 | 2.08104 | 3 ft | 6 kts | 66° |
| 2026-05-04 11:59 | 41.29315 | 2.08166 | 3 ft | 9 kts | 64° |
| 2026-05-04 11:59 | 41.29343 | 2.08247 | 4 ft | 11 kts | 65° |
| 2026-05-04 12:00 | 41.29372 | 2.08338 | 3 ft | 9 kts | 77° |
| 2026-05-04 12:00 | 41.29330 | 2.08403 | 4 ft | 11 kts | 154° |
| 2026-05-04 12:00 | 41.29253 | 2.08451 | 3 ft | 13 kts | 156° |
| 2026-05-04 12:00 | 41.29161 | 2.08504 | 3 ft | 15 kts | 155° |
| 2026-05-04 12:01 | 41.29062 | 2.08564 | 6 ft | 16 kts | 156° |
| 2026-05-04 12:01 | 41.28962 | 2.08624 | 8 ft | 16 kts | 155° |
| 2026-05-04 12:02 | 41.29052 | 2.09284 | 3 ft | 20 kts | 65° |
| 2026-05-04 12:03 | 41.29113 | 2.09462 | 4 ft | 22 kts | 65° |
| 2026-05-04 12:03 | 41.29180 | 2.09659 | 4 ft | 24 kts | 65° |
| 2026-05-04 12:03 | 41.29253 | 2.09873 | 3 ft | 25 kts | 65° |
| 2026-05-04 12:03 | 41.29322 | 2.10035 | 3 ft | 12 kts | 66° |
| 2026-05-04 12:04 | 41.29317 | 2.10117 | 5 ft | 10 kts | 112° |
| 2026-05-04 12:04 | 41.29290 | 2.10210 | 4 ft | 12 kts | 111° |
| 2026-05-04 12:04 | 41.29249 | 2.10309 | 5 ft | 11 kts | 139° |
| 2026-05-04 12:04 | 41.29208 | 2.10291 | 6 ft | 7 kts | 243° |
| 2026-05-04 12:05 | 41.29206 | 2.10284 | 6 ft | 0 kts | 245° |
| 2026-05-04 12:05 | 41.29199 | 2.10264 | 5 ft | 14 kts | 245° |
| 2026-05-04 12:06 | 41.29051 | 2.09837 | 8 ft | 85 kts | 245° |
| 2026-05-04 12:06 | 41.28726 | 2.08891 | 8 ft | 137 kts | 245° |
| 2026-05-04 12:06 | 41.28283 | 2.07595 | 242 ft | 159 kts | 243° |
| 2026-05-04 12:06 | 41.27727 | 2.06351 | 883 ft | 157 kts | 223° |
| 2026-05-04 12:07 | 41.26720 | 2.05711 | 1267 ft | 174 kts | 184° |
| 2026-05-04 12:07 | 41.25464 | 2.05696 | 1623 ft | 192 kts | 181° |
| 2026-05-04 12:07 | 41.24055 | 2.05704 | 1971 ft | 211 kts | 181° |
| 2026-05-04 12:07 | 41.22567 | 2.05705 | 2699 ft | 215 kts | 181° |
| 2026-05-04 12:08 | 41.21072 | 2.05703 | 3531 ft | 216 kts | 182° |
| 2026-05-04 12:08 | 41.19560 | 2.05697 | 4319 ft | 218 kts | 182° |
| 2026-05-04 12:08 | 41.18032 | 2.05689 | 5145 ft | 221 kts | 182° |
| 2026-05-04 12:08 | 41.16469 | 2.05664 | 5856 ft | 232 kts | 183° |
| 2026-05-04 12:09 | 41.14833 | 2.05592 | 6754 ft | 237 kts | 181° |
| 2026-05-04 12:09 | 41.13175 | 2.05505 | 8026 ft | 241 kts | 182° |
| 2026-05-04 12:09 | 41.11478 | 2.05423 | 9348 ft | 246 kts | 184° |
| 2026-05-04 12:09 | 41.09759 | 2.05336 | 10665 ft | 249 kts | 184° |
| 2026-05-04 12:10 | 41.08022 | 2.05245 | 11878 ft | 250 kts | 186° |
| 2026-05-04 12:10 | 41.06274 | 2.05157 | 12810 ft | 253 kts | 185° |
| 2026-05-04 12:10 | 41.04503 | 2.05069 | 13529 ft | 256 kts | 185° |
| 2026-05-04 12:10 | 41.02711 | 2.04987 | 14195 ft | 259 kts | 183° |
| 2026-05-04 12:11 | 41.00915 | 2.05444 | 14801 ft | 270 kts | 161° |
| 2026-05-04 12:11 | 40.99336 | 2.06900 | 15288 ft | 291 kts | 137° |
| 2026-05-04 12:11 | 40.98281 | 2.09339 | 15426 ft | 323 kts | 114° |
| 2026-05-04 12:11 | 40.97529 | 2.12254 | 15552 ft | 345 kts | 113° |
| 2026-05-04 12:12 | 40.96740 | 2.15349 | 15686 ft | 364 kts | 112° |
| 2026-05-04 12:12 | 40.95917 | 2.18575 | 16063 ft | 374 kts | 112° |
| 2026-05-04 12:12 | 40.95207 | 2.21916 | 16570 ft | 383 kts | 102° |
| 2026-05-04 12:12 | 40.95122 | 2.25480 | 17106 ft | 394 kts | 86° |
| 2026-05-04 12:13 | 40.95762 | 2.29032 | 17634 ft | 402 kts | 69° |
| 2026-05-04 12:14 | 41.09338 | 2.48722 | 21045 ft | 431 kts | 44° |
| 2026-05-04 12:15 | 41.11451 | 2.51554 | 21505 ft | 434 kts | 44° |
| 2026-05-04 12:15 | 41.13585 | 2.54418 | 21954 ft | 438 kts | 44° |
| 2026-05-04 12:15 | 41.15736 | 2.57309 | 22393 ft | 442 kts | 44° |
| 2026-05-04 12:15 | 41.17900 | 2.60220 | 22836 ft | 446 kts | 44° |
| 2026-05-04 12:16 | 41.20085 | 2.63167 | 23272 ft | 449 kts | 44° |
| 2026-05-04 12:16 | 41.22287 | 2.66139 | 23671 ft | 453 kts | 44° |
| 2026-05-04 12:16 | 41.24505 | 2.69134 | 24008 ft | 457 kts | 44° |
| 2026-05-04 12:16 | 41.26746 | 2.72156 | 24364 ft | 460 kts | 44° |
| 2026-05-04 12:17 | 41.29000 | 2.75193 | 24731 ft | 463 kts | 44° |
| 2026-05-04 12:17 | 41.31272 | 2.78256 | 25095 ft | 466 kts | 44° |
| 2026-05-04 12:17 | 41.33555 | 2.81341 | 25489 ft | 469 kts | 44° |
| 2026-05-04 12:17 | 41.35847 | 2.84444 | 25850 ft | 472 kts | 44° |
| 2026-05-04 12:18 | 41.38154 | 2.87572 | 26210 ft | 475 kts | 44° |
| 2026-05-04 12:18 | 41.40475 | 2.90723 | 26565 ft | 478 kts | 44° |
| 2026-05-04 12:18 | 41.42809 | 2.93894 | 26910 ft | 481 kts | 45° |
| 2026-05-04 12:18 | 41.45155 | 2.97084 | 27250 ft | 484 kts | 45° |
| 2026-05-04 12:19 | 41.47516 | 3.00304 | 27588 ft | 487 kts | 45° |
| 2026-05-04 12:19 | 41.49888 | 3.03539 | 27930 ft | 489 kts | 45° |
| 2026-05-04 12:19 | 41.52273 | 3.06793 | 28281 ft | 492 kts | 45° |
| 2026-05-04 12:19 | 41.54671 | 3.10069 | 28649 ft | 494 kts | 45° |
| 2026-05-04 12:20 | 41.57078 | 3.13368 | 28996 ft | 497 kts | 45° |
| 2026-05-04 12:20 | 41.59493 | 3.16686 | 29341 ft | 500 kts | 45° |
| 2026-05-04 12:20 | 41.61927 | 3.20027 | 29682 ft | 503 kts | 45° |
| 2026-05-04 12:20 | 41.64374 | 3.23388 | 29925 ft | 506 kts | 45° |
| 2026-05-04 12:21 | 41.69279 | 3.30135 | 29947 ft | 506 kts | 45° |
| 2026-05-04 12:21 | 41.73698 | 3.37432 | 29955 ft | 506 kts | 60° |
| 2026-05-04 12:22 | 41.76733 | 3.45897 | 29954 ft | 505 kts | 68° |
| 2026-05-04 12:22 | 41.79584 | 3.54493 | 29968 ft | 505 kts | 68° |
| 2026-05-04 12:23 | 41.82444 | 3.63090 | 29969 ft | 505 kts | 68° |
| 2026-05-04 12:23 | 41.85291 | 3.71699 | 29959 ft | 505 kts | 68° |
| 2026-05-04 12:24 | 41.88108 | 3.80253 | 29958 ft | 505 kts | 68° |
| 2026-05-04 12:24 | 41.90925 | 3.88853 | 29965 ft | 502 kts | 68° |
| 2026-05-04 12:25 | 41.93728 | 3.97452 | 29965 ft | 503 kts | 68° |
| 2026-05-04 12:25 | 41.96536 | 4.06072 | 29979 ft | 504 kts | 68° |
| 2026-05-04 12:26 | 41.99340 | 4.14696 | 29970 ft | 503 kts | 68° |
| 2026-05-04 12:26 | 42.02126 | 4.23317 | 29980 ft | 502 kts | 68° |
| 2026-05-04 12:27 | 42.04889 | 4.31917 | 29980 ft | 500 kts | 68° |
| 2026-05-04 12:27 | 42.08068 | 4.40243 | 29980 ft | 502 kts | 55° |
| 2026-05-04 12:28 | 42.12728 | 4.47206 | 29991 ft | 502 kts | 40° |
| 2026-05-04 12:28 | 42.17953 | 4.53467 | 29975 ft | 503 kts | 40° |
| 2026-05-04 12:29 | 42.23173 | 4.59757 | 29989 ft | 502 kts | 40° |
| 2026-05-04 12:29 | 42.28359 | 4.66047 | 29992 ft | 501 kts | 40° |
| 2026-05-04 12:30 | 42.33539 | 4.72335 | 29992 ft | 502 kts | 40° |
| 2026-05-04 12:30 | 42.38736 | 4.78648 | 30003 ft | 502 kts | 40° |
| 2026-05-04 12:31 | 42.43933 | 4.84963 | 29999 ft | 502 kts | 40° |
| 2026-05-04 12:31 | 42.49130 | 4.91285 | 30007 ft | 502 kts | 40° |
| 2026-05-04 12:32 | 42.56902 | 5.00788 | 30006 ft | 501 kts | 40° |
| 2026-05-04 12:33 | 42.62063 | 5.07132 | 30014 ft | 500 kts | 40° |
| 2026-05-04 12:33 | 42.67182 | 5.13434 | 30013 ft | 500 kts | 40° |
| 2026-05-04 12:34 | 42.72335 | 5.19795 | 30018 ft | 500 kts | 40° |
| 2026-05-04 12:34 | 42.77481 | 5.26159 | 30022 ft | 500 kts | 40° |
| 2026-05-04 12:35 | 42.82630 | 5.32529 | 30022 ft | 500 kts | 40° |
| 2026-05-04 12:35 | 42.87763 | 5.38900 | 30026 ft | 498 kts | 40° |
| 2026-05-04 12:36 | 42.92876 | 5.45263 | 30028 ft | 498 kts | 40° |
| 2026-05-04 12:36 | 42.97995 | 5.51638 | 30035 ft | 498 kts | 40° |
| 2026-05-04 12:37 | 43.03105 | 5.58035 | 30033 ft | 498 kts | 40° |
| 2026-05-04 12:37 | 43.08207 | 5.64441 | 30040 ft | 498 kts | 40° |
| 2026-05-04 12:38 | 43.13315 | 5.70859 | 30042 ft | 498 kts | 41° |
| 2026-05-04 12:38 | 43.18406 | 5.77265 | 30045 ft | 496 kts | 40° |
| 2026-05-04 12:39 | 43.23486 | 5.83667 | 30045 ft | 496 kts | 40° |
| 2026-05-04 12:39 | 43.28560 | 5.90079 | 30063 ft | 496 kts | 41° |
| 2026-05-04 12:40 | 43.33620 | 5.96496 | 30045 ft | 494 kts | 40° |
| 2026-05-04 12:40 | 43.39252 | 6.01746 | 30046 ft | 487 kts | 21° |
| 2026-05-04 12:41 | 43.45621 | 6.04520 | 30052 ft | 477 kts | 4° |
| 2026-05-04 12:41 | 43.51078 | 6.05207 | 30047 ft | 473 kts | 359° |
| 2026-05-04 12:42 | 43.57650 | 6.05869 | 30052 ft | 473 kts | 359° |
| 2026-05-04 12:42 | 43.64215 | 6.06535 | 30046 ft | 473 kts | 359° |
| 2026-05-04 12:43 | 43.70782 | 6.07202 | 30050 ft | 474 kts | 359° |
| 2026-05-04 12:43 | 43.77337 | 6.08537 | 30055 ft | 482 kts | 12° |
| 2026-05-04 12:44 | 43.83511 | 6.12180 | 30057 ft | 484 kts | 23° |
| 2026-05-04 12:44 | 43.89542 | 6.16300 | 30054 ft | 483 kts | 23° |
| 2026-05-04 12:45 | 43.95579 | 6.20409 | 30066 ft | 483 kts | 23° |
| 2026-05-04 12:45 | 44.01613 | 6.24529 | 30067 ft | 483 kts | 23° |
| 2026-05-04 12:46 | 44.07638 | 6.28664 | 30075 ft | 483 kts | 24° |
| 2026-05-04 12:46 | 44.13661 | 6.32809 | 30071 ft | 483 kts | 24° |
| 2026-05-04 12:47 | 44.19687 | 6.36968 | 30072 ft | 483 kts | 24° |
| 2026-05-04 12:47 | 44.25713 | 6.41131 | 30095 ft | 483 kts | 24° |
| 2026-05-04 12:48 | 44.31715 | 6.45280 | 30099 ft | 481 kts | 24° |
| 2026-05-04 12:48 | 44.37728 | 6.49442 | 30571 ft | 483 kts | 23° |
| 2026-05-04 12:48 | 44.40747 | 6.51537 | 30884 ft | 486 kts | 24° |
| 2026-05-04 12:49 | 44.43779 | 6.53648 | 31268 ft | 487 kts | 24° |
| 2026-05-04 12:49 | 44.46804 | 6.55758 | 31778 ft | 485 kts | 24° |
| 2026-05-04 12:49 | 44.49779 | 6.57837 | 32219 ft | 484 kts | 24° |
| 2026-05-04 12:49 | 44.52831 | 6.59971 | 32664 ft | 484 kts | 24° |
| 2026-05-04 12:50 | 44.55844 | 6.62075 | 33079 ft | 484 kts | 24° |
| 2026-05-04 12:50 | 44.58860 | 6.64182 | 33542 ft | 484 kts | 23° |
| 2026-05-04 12:50 | 44.61868 | 6.66287 | 33959 ft | 484 kts | 23° |
| 2026-05-04 12:50 | 44.64884 | 6.68402 | 34110 ft | 483 kts | 23° |
| 2026-05-04 12:51 | 44.67833 | 6.70473 | 34150 ft | 480 kts | 23° |
| 2026-05-04 12:51 | 44.73785 | 6.74660 | 34131 ft | 478 kts | 23° |
| 2026-05-04 12:52 | 44.79937 | 6.77947 | 34159 ft | 469 kts | 8° |
| 2026-05-04 12:52 | 44.86343 | 6.78644 | 34145 ft | 459 kts | 352° |
| 2026-05-04 12:53 | 44.92733 | 6.78216 | 34148 ft | 459 kts | 352° |
| 2026-05-04 12:53 | 44.99122 | 6.77791 | 34165 ft | 459 kts | 352° |
| 2026-05-04 12:54 | 45.05505 | 6.77368 | 34176 ft | 460 kts | 352° |
| 2026-05-04 12:54 | 45.11897 | 6.76941 | 34170 ft | 460 kts | 352° |
| 2026-05-04 12:55 | 45.18291 | 6.76512 | 34155 ft | 459 kts | 352° |
| 2026-05-04 12:55 | 45.24679 | 6.76084 | 34158 ft | 460 kts | 353° |
| 2026-05-04 12:56 | 45.31069 | 6.75660 | 34149 ft | 459 kts | 353° |
| 2026-05-04 12:56 | 45.37454 | 6.75246 | 34141 ft | 459 kts | 353° |
| 2026-05-04 12:57 | 45.43849 | 6.74821 | 34142 ft | 460 kts | 353° |
| 2026-05-04 12:57 | 45.50243 | 6.74384 | 34137 ft | 460 kts | 353° |
| 2026-05-04 12:58 | 45.56635 | 6.73944 | 34132 ft | 459 kts | 353° |
| 2026-05-04 12:58 | 45.63033 | 6.73499 | 34132 ft | 461 kts | 354° |
| 2026-05-04 12:59 | 45.69440 | 6.73061 | 34097 ft | 461 kts | 354° |
| 2026-05-04 12:59 | 45.75844 | 6.72619 | 34085 ft | 461 kts | 354° |
| 2026-05-04 13:00 | 45.82256 | 6.72175 | 34081 ft | 461 kts | 354° |
| 2026-05-04 13:00 | 45.88671 | 6.71735 | 34080 ft | 461 kts | 353° |
| 2026-05-04 13:01 | 45.95098 | 6.71301 | 34071 ft | 463 kts | 354° |
| 2026-05-04 13:01 | 46.01490 | 6.70871 | 34064 ft | 463 kts | 354° |
| 2026-05-04 13:02 | 46.07970 | 6.70425 | 34048 ft | 463 kts | 354° |
| 2026-05-04 13:02 | 46.14427 | 6.70953 | 34047 ft | 469 kts | 10° |
| 2026-05-04 13:03 | 46.20724 | 6.73522 | 34051 ft | 471 kts | 14° |
| 2026-05-04 13:03 | 46.26968 | 6.76180 | 34046 ft | 471 kts | 14° |
| 2026-05-04 13:04 | 46.33299 | 6.78846 | 34041 ft | 471 kts | 14° |
| 2026-05-04 13:04 | 46.39582 | 6.81502 | 34033 ft | 470 kts | 14° |
| 2026-05-04 13:05 | 46.45825 | 6.84166 | 34036 ft | 471 kts | 15° |
| 2026-05-04 13:05 | 46.52054 | 6.87102 | 34029 ft | 472 kts | 23° |
| 2026-05-04 13:06 | 46.57562 | 6.92245 | 34058 ft | 472 kts | 42° |
| 2026-05-04 13:06 | 46.61893 | 6.99386 | 34049 ft | 471 kts | 52° |
| 2026-05-04 13:07 | 46.66008 | 7.06801 | 34048 ft | 471 kts | 52° |
| 2026-05-04 13:07 | 46.70119 | 7.14217 | 34048 ft | 471 kts | 52° |
| 2026-05-04 13:08 | 46.74221 | 7.21656 | 34047 ft | 471 kts | 52° |
| 2026-05-04 13:08 | 46.78316 | 7.29109 | 34016 ft | 471 kts | 52° |
| 2026-05-04 13:09 | 46.82409 | 7.36584 | 33988 ft | 471 kts | 52° |
| 2026-05-04 13:09 | 46.86499 | 7.44049 | 34008 ft | 471 kts | 52° |
| 2026-05-04 13:10 | 46.90579 | 7.51521 | 34002 ft | 470 kts | 52° |
| 2026-05-04 13:10 | 46.94643 | 7.59015 | 34001 ft | 470 kts | 52° |
| 2026-05-04 13:11 | 46.98701 | 7.66523 | 33996 ft | 470 kts | 52° |
| 2026-05-04 13:11 | 47.02758 | 7.74038 | 33987 ft | 470 kts | 52° |
| 2026-05-04 13:12 | 47.06813 | 7.81554 | 33979 ft | 470 kts | 52° |
| 2026-05-04 13:12 | 47.10864 | 7.89092 | 33980 ft | 470 kts | 52° |
| 2026-05-04 13:13 | 47.14718 | 7.96825 | 33981 ft | 469 kts | 59° |
| 2026-05-04 13:13 | 47.18180 | 8.04962 | 33976 ft | 470 kts | 59° |
| 2026-05-04 13:14 | 47.21650 | 8.13106 | 33983 ft | 470 kts | 59° |
| 2026-05-04 13:14 | 47.25117 | 8.21263 | 33983 ft | 470 kts | 59° |
| 2026-05-04 13:15 | 47.28636 | 8.29379 | 33989 ft | 470 kts | 53° |
| 2026-05-04 13:15 | 47.33225 | 8.36165 | 33986 ft | 468 kts | 35° |
| 2026-05-04 13:16 | 47.38648 | 8.41438 | 33990 ft | 466 kts | 32° |
| 2026-05-04 13:16 | 47.44071 | 8.46685 | 34016 ft | 466 kts | 32° |
| 2026-05-04 13:17 | 47.49488 | 8.51953 | 34021 ft | 466 kts | 32° |
| 2026-05-04 13:17 | 47.54860 | 8.57187 | 34019 ft | 465 kts | 32° |
| 2026-05-04 13:18 | 47.60264 | 8.62462 | 34007 ft | 465 kts | 32° |
| 2026-05-04 13:18 | 47.65670 | 8.67732 | 34000 ft | 465 kts | 32° |
| 2026-05-04 13:19 | 47.71070 | 8.73015 | 33999 ft | 465 kts | 32° |
| 2026-05-04 13:19 | 47.76462 | 8.78326 | 33986 ft | 465 kts | 32° |
| 2026-05-04 13:20 | 47.81857 | 8.83643 | 33980 ft | 465 kts | 32° |
| 2026-05-04 13:20 | 47.87251 | 8.88968 | 33978 ft | 465 kts | 32° |
| 2026-05-04 13:21 | 47.92639 | 8.94302 | 33982 ft | 464 kts | 33° |
| 2026-05-04 13:21 | 47.98008 | 8.99634 | 33993 ft | 463 kts | 33° |
| 2026-05-04 13:22 | 48.03365 | 9.04969 | 33993 ft | 463 kts | 33° |
| 2026-05-04 13:22 | 48.08712 | 9.10311 | 33993 ft | 462 kts | 33° |
| 2026-05-04 13:23 | 48.14101 | 9.15532 | 33994 ft | 461 kts | 26° |
| 2026-05-04 13:23 | 48.20086 | 9.18748 | 33984 ft | 455 kts | 8° |
| 2026-05-04 13:24 | 48.26353 | 9.19885 | 33974 ft | 454 kts | 4° |
| 2026-05-04 13:24 | 48.32624 | 9.20947 | 33980 ft | 454 kts | 3° |
| 2026-05-04 13:25 | 48.42042 | 9.22561 | 33978 ft | 454 kts | 3° |
| 2026-05-04 13:25 | 48.48326 | 9.23620 | 33980 ft | 454 kts | 3° |
| 2026-05-04 13:26 | 48.54562 | 9.24673 | 34002 ft | 454 kts | 3° |
| 2026-05-04 13:26 | 48.60845 | 9.25736 | 33979 ft | 454 kts | 3° |
| 2026-05-04 13:27 | 48.67126 | 9.26761 | 33979 ft | 454 kts | 2° |
| 2026-05-04 13:27 | 48.73417 | 9.27704 | 33982 ft | 454 kts | 2° |
| 2026-05-04 13:28 | 48.79705 | 9.28639 | 33980 ft | 454 kts | 2° |
| 2026-05-04 13:28 | 48.85992 | 9.29598 | 33981 ft | 454 kts | 2° |
| 2026-05-04 13:29 | 48.92280 | 9.30578 | 33988 ft | 454 kts | 2° |
| 2026-05-04 13:29 | 48.98566 | 9.31554 | 33997 ft | 454 kts | 2° |
| 2026-05-04 13:30 | 49.04851 | 9.32521 | 33995 ft | 454 kts | 2° |
| 2026-05-04 13:30 | 49.10073 | 9.33323 | 34001 ft | 454 kts | 2° |
| 2026-05-04 13:31 | 49.16360 | 9.34297 | 34006 ft | 454 kts | 2° |
| 2026-05-04 13:31 | 49.22638 | 9.35274 | 34004 ft | 454 kts | 2° |
| 2026-05-04 13:32 | 49.28919 | 9.36255 | 34023 ft | 454 kts | 2° |
| 2026-05-04 13:32 | 49.35211 | 9.37240 | 33998 ft | 455 kts | 2° |
| 2026-05-04 13:33 | 49.41515 | 9.38235 | 33993 ft | 456 kts | 2° |
| 2026-05-04 13:33 | 49.47827 | 9.39224 | 33988 ft | 456 kts | 1° |
| 2026-05-04 13:34 | 49.54152 | 9.40219 | 33988 ft | 457 kts | 1° |
| 2026-05-04 13:34 | 49.60479 | 9.41223 | 33995 ft | 457 kts | 1° |
| 2026-05-04 13:35 | 49.69928 | 9.42715 | 34000 ft | 457 kts | 1° |
| 2026-05-04 13:36 | 49.76296 | 9.43727 | 34000 ft | 457 kts | 2° |
| 2026-05-04 13:36 | 49.82579 | 9.44754 | 34011 ft | 457 kts | 1° |
| 2026-05-04 13:37 | 49.88901 | 9.45776 | 34004 ft | 457 kts | 1° |
| 2026-05-04 13:37 | 49.95224 | 9.46804 | 34002 ft | 456 kts | 1° |
| 2026-05-04 13:38 | 50.01540 | 9.47818 | 33999 ft | 456 kts | 1° |
| 2026-05-04 13:38 | 50.07860 | 9.48828 | 34003 ft | 457 kts | 1° |
| 2026-05-04 13:39 | 50.14183 | 9.49871 | 34003 ft | 457 kts | 1° |
| 2026-05-04 13:39 | 50.20504 | 9.50935 | 33992 ft | 457 kts | 1° |
| 2026-05-04 13:40 | 50.26824 | 9.52003 | 33994 ft | 457 kts | 1° |
| 2026-05-04 13:40 | 50.33149 | 9.53066 | 33995 ft | 457 kts | 1° |
| 2026-05-04 13:41 | 50.39481 | 9.54132 | 33984 ft | 457 kts | 1° |
| 2026-05-04 13:41 | 50.45790 | 9.55206 | 33873 ft | 457 kts | 1° |
| 2026-05-04 13:42 | 50.52074 | 9.56276 | 33336 ft | 452 kts | 1° |
| 2026-05-04 13:42 | 50.55197 | 9.56805 | 33063 ft | 451 kts | 1° |
| 2026-05-04 13:42 | 50.58309 | 9.57333 | 32794 ft | 449 kts | 1° |
| 2026-05-04 13:42 | 50.61410 | 9.57858 | 32527 ft | 447 kts | 1° |
| 2026-05-04 13:43 | 50.64499 | 9.58384 | 32262 ft | 446 kts | 2° |
| 2026-05-04 13:43 | 50.67576 | 9.58909 | 31989 ft | 444 kts | 2° |
| 2026-05-04 13:43 | 50.70645 | 9.59431 | 31737 ft | 443 kts | 2° |
| 2026-05-04 13:43 | 50.73698 | 9.59951 | 31480 ft | 441 kts | 2° |
| 2026-05-04 13:44 | 50.76744 | 9.60508 | 31227 ft | 440 kts | 3° |
| 2026-05-04 13:44 | 50.79776 | 9.61101 | 30974 ft | 438 kts | 3° |
| 2026-05-04 13:44 | 50.82797 | 9.61705 | 30724 ft | 437 kts | 3° |
| 2026-05-04 13:44 | 50.85809 | 9.62304 | 30478 ft | 436 kts | 3° |
| 2026-05-04 13:45 | 50.88801 | 9.62896 | 30144 ft | 430 kts | 3° |
| 2026-05-04 13:45 | 50.91765 | 9.63483 | 29639 ft | 428 kts | 3° |
| 2026-05-04 13:45 | 50.94704 | 9.64064 | 29201 ft | 424 kts | 3° |
| 2026-05-04 13:45 | 50.97622 | 9.64636 | 28752 ft | 421 kts | 3° |
| 2026-05-04 13:46 | 51.00521 | 9.65199 | 28326 ft | 418 kts | 3° |
| 2026-05-04 13:46 | 51.03391 | 9.65751 | 27908 ft | 414 kts | 3° |
| 2026-05-04 13:46 | 51.06242 | 9.66299 | 27497 ft | 411 kts | 3° |
| 2026-05-04 13:46 | 51.09074 | 9.66847 | 27100 ft | 409 kts | 3° |
| 2026-05-04 13:47 | 51.11888 | 9.67403 | 26704 ft | 406 kts | 4° |
| 2026-05-04 13:47 | 51.14678 | 9.67962 | 26307 ft | 403 kts | 4° |
| 2026-05-04 13:47 | 51.17448 | 9.68513 | 25925 ft | 400 kts | 4° |
| 2026-05-04 13:47 | 51.20163 | 9.69048 | 25527 ft | 397 kts | 4° |
| 2026-05-04 13:48 | 51.22898 | 9.69556 | 25115 ft | 395 kts | 2° |
| 2026-05-04 13:48 | 51.25624 | 9.70007 | 24710 ft | 392 kts | 2° |
| 2026-05-04 13:48 | 51.28337 | 9.70430 | 24293 ft | 391 kts | 2° |
| 2026-05-04 13:48 | 51.31041 | 9.70841 | 23873 ft | 389 kts | 2° |
| 2026-05-04 13:49 | 51.33735 | 9.71256 | 23438 ft | 388 kts | 2° |
| 2026-05-04 13:49 | 51.36418 | 9.71676 | 22968 ft | 386 kts | 2° |
| 2026-05-04 13:49 | 51.39074 | 9.72103 | 22543 ft | 382 kts | 2° |
| 2026-05-04 13:49 | 51.41708 | 9.72536 | 22115 ft | 379 kts | 2° |
| 2026-05-04 13:50 | 51.44322 | 9.72968 | 21672 ft | 376 kts | 2° |
| 2026-05-04 13:50 | 51.46918 | 9.73397 | 21234 ft | 374 kts | 2° |
| 2026-05-04 13:50 | 51.49498 | 9.73840 | 20809 ft | 372 kts | 3° |
| 2026-05-04 13:50 | 51.52062 | 9.74314 | 20378 ft | 370 kts | 4° |
| 2026-05-04 13:51 | 51.54605 | 9.74802 | 19948 ft | 368 kts | 4° |
| 2026-05-04 13:51 | 51.57140 | 9.75293 | 19519 ft | 366 kts | 4° |
| 2026-05-04 13:51 | 51.59662 | 9.75785 | 19088 ft | 364 kts | 4° |
| 2026-05-04 13:51 | 51.62166 | 9.76270 | 18664 ft | 362 kts | 4° |
| 2026-05-04 13:52 | 51.67152 | 9.77214 | 17759 ft | 359 kts | 4° |
| 2026-05-04 13:52 | 51.69617 | 9.77682 | 17346 ft | 355 kts | 4° |
| 2026-05-04 13:52 | 51.72066 | 9.78149 | 16921 ft | 353 kts | 4° |
| 2026-05-04 13:53 | 51.74494 | 9.78614 | 16507 ft | 350 kts | 4° |
| 2026-05-04 13:53 | 51.76903 | 9.79074 | 16088 ft | 348 kts | 4° |
| 2026-05-04 13:53 | 51.79272 | 9.79527 | 15682 ft | 346 kts | 4° |
| 2026-05-04 13:54 | 51.84030 | 9.80447 | 14857 ft | 343 kts | 4° |
| 2026-05-04 13:54 | 51.86396 | 9.80903 | 14446 ft | 342 kts | 4° |
| 2026-05-04 13:54 | 51.91098 | 9.81802 | 13619 ft | 339 kts | 4° |
| 2026-05-04 13:55 | 51.93435 | 9.82248 | 13186 ft | 337 kts | 4° |
| 2026-05-04 13:55 | 51.98056 | 9.83138 | 12379 ft | 332 kts | 4° |
| 2026-05-04 13:55 | 52.00339 | 9.83586 | 11977 ft | 330 kts | 4° |
| 2026-05-04 13:56 | 52.02613 | 9.84035 | 11573 ft | 328 kts | 4° |
| 2026-05-04 13:56 | 52.04868 | 9.84478 | 11301 ft | 322 kts | 4° |
| 2026-05-04 13:56 | 52.09204 | 9.85332 | 10870 ft | 309 kts | 4° |
| 2026-05-04 13:57 | 52.11331 | 9.85748 | 10558 ft | 307 kts | 4° |
| 2026-05-04 13:57 | 52.13448 | 9.86161 | 10213 ft | 306 kts | 4° |
| 2026-05-04 13:58 | 52.19758 | 9.87386 | 9175 ft | 302 kts | 4° |
| 2026-05-04 13:58 | 52.23900 | 9.88353 | 8472 ft | 301 kts | 14° |
| 2026-05-04 13:58 | 52.25813 | 9.89711 | 8128 ft | 301 kts | 31° |
| 2026-05-04 13:59 | 52.27459 | 9.91802 | 7783 ft | 300 kts | 41° |
| 2026-05-04 13:59 | 52.29022 | 9.94048 | 7431 ft | 299 kts | 40° |
| 2026-05-04 13:59 | 52.32129 | 9.98503 | 6798 ft | 295 kts | 40° |
| 2026-05-04 14:00 | 52.33662 | 10.00698 | 6288 ft | 292 kts | 40° |
| 2026-05-04 14:00 | 52.36923 | 10.04451 | 5123 ft | 283 kts | 19° |
| 2026-05-04 14:00 | 52.38813 | 10.05215 | 4625 ft | 275 kts | 3° |
| 2026-05-04 14:01 | 52.40662 | 10.05363 | 4441 ft | 257 kts | 0° |
| 2026-05-04 14:01 | 52.42395 | 10.05458 | 4317 ft | 240 kts | 352° |
| 2026-05-04 14:01 | 52.44621 | 10.02268 | 3866 ft | 231 kts | 281° |
| 2026-05-04 14:02 | 52.44814 | 9.99666 | 3557 ft | 231 kts | 272° |
| 2026-05-04 14:02 | 52.44860 | 9.97054 | 3245 ft | 227 kts | 270° |
| 2026-05-04 14:02 | 52.44847 | 9.94512 | 2957 ft | 217 kts | 267° |
| 2026-05-04 14:02 | 52.44821 | 9.92101 | 2692 ft | 207 kts | 271° |
| 2026-05-04 14:03 | 52.44864 | 9.89785 | 2431 ft | 200 kts | 272° |
| 2026-05-04 14:03 | 52.44926 | 9.87559 | 2177 ft | 192 kts | 273° |
| 2026-05-04 14:03 | 52.44987 | 9.85477 | 1930 ft | 179 kts | 273° |
| 2026-05-04 14:03 | 52.45045 | 9.83502 | 1687 ft | 167 kts | 274° |
| 2026-05-04 14:04 | 52.45147 | 9.80018 | 1279 ft | 141 kts | 274° |
| 2026-05-04 14:04 | 52.45193 | 9.78439 | 1095 ft | 137 kts | 274° |
| 2026-05-04 14:04 | 52.45237 | 9.76898 | 913 ft | 134 kts | 274° |
| 2026-05-04 14:05 | 52.45321 | 9.73863 | 570 ft | 133 kts | 274° |
| 2026-05-04 14:05 | 52.45361 | 9.72344 | 368 ft | 133 kts | 275° |
| 2026-05-04 14:05 | 52.45409 | 9.70828 | 193 ft | 133 kts | 275° |
| 2026-05-04 14:06 | 52.45444 | 9.69617 | 183 ft | 67 kts | 272° |
| 2026-05-04 14:06 | 52.45453 | 9.69291 | 189 ft | 10 kts | 272° |
| 2026-05-04 14:06 | 52.45465 | 9.69162 | 189 ft | 12 kts | 306° |
| 2026-05-04 14:06 | 52.45552 | 9.69137 | 179 ft | 13 kts | 2° |
| 2026-05-04 14:07 | 52.45615 | 9.69168 | 179 ft | 8 kts | 57° |
| 2026-05-04 14:07 | 52.45618 | 9.69271 | 179 ft | 10 kts | 91° |
| 2026-05-04 14:07 | 52.45613 | 9.69404 | 179 ft | 13 kts | 92° |
| 2026-05-04 14:07 | 52.45609 | 9.69568 | 179 ft | 16 kts | 93° |
| 2026-05-04 14:08 | 52.45604 | 9.69759 | 179 ft | 15 kts | 91° |
| 2026-05-04 14:08 | 52.45646 | 9.69836 | 179 ft | 6 kts | 31° |
| 2026-05-04 14:08 | 52.45675 | 9.69899 | 179 ft | 8 kts | 50° |
| 2026-05-04 14:08 | 52.45711 | 9.69936 | 179 ft | 4 kts | 32° |
| 2026-05-04 14:09 | 52.45735 | 9.69961 | 179 ft | 0 kts | 32° |